createdAt,value
2018-04-29T00:01:56.052Z,97555.64
2018-04-29T00:04:24.337Z,97550.99
2018-04-29T00:06:52.615Z,97554.42
2018-04-29T00:09:20.876Z,97555.77
2018-04-29T00:11:49.184Z,97557.11
2018-04-29T00:14:17.448Z,97555.45
2018-04-29T00:16:45.704Z,97548.70
2018-04-29T00:19:14.023Z,97549.70
2018-04-29T00:21:42.283Z,97554.86
2018-04-29T00:24:10.630Z,97546.40
2018-04-29T00:26:38.923Z,97546.92
2018-04-29T00:29:07.187Z,97548.95
2018-04-29T00:31:35.438Z,97545.62
2018-04-29T00:34:04.575Z,97552.08
2018-04-29T00:36:32.843Z,97546.18
2018-04-29T00:39:01.118Z,97542.81
2018-04-29T00:41:29.510Z,97538.48
2018-04-29T00:43:57.770Z,97532.46
2018-04-29T00:46:26.031Z,97535.03
2018-04-29T00:48:55.153Z,97534.16
2018-04-29T00:51:41.536Z,97532.78
2018-04-29T00:54:09.748Z,97534.47
2018-04-29T00:56:38.006Z,97537.61
2018-04-29T00:59:06.355Z,97539.63
2018-04-29T01:01:34.563Z,97538.42
2018-04-29T01:04:02.831Z,97544.84
2018-04-29T01:06:31.086Z,97544.71
2018-04-29T01:08:59.391Z,97548.58
2018-04-29T01:11:27.650Z,97543.45
2018-04-29T01:13:55.908Z,97537.91
2018-04-29T01:16:25.037Z,97537.91
2018-04-29T01:18:53.318Z,97542.72
2018-04-29T01:21:21.580Z,97544.04
2018-04-29T01:23:49.883Z,97547.06
2018-04-29T01:26:18.146Z,97538.63
2018-04-29T01:28:46.411Z,97546.78
2018-04-29T01:31:14.733Z,97543.41
2018-04-29T01:33:42.991Z,97533.76
2018-04-29T01:36:11.255Z,97532.46
2018-04-29T01:38:39.554Z,97543.55
2018-04-29T01:41:07.803Z,97540.77
2018-04-29T01:43:36.055Z,97540.72
2018-04-29T01:46:04.327Z,97544.11
2018-04-29T01:48:32.594Z,97539.89
2018-04-29T01:51:01.608Z,97541.23
2018-04-29T01:53:29.888Z,97536.94
2018-04-29T01:55:58.147Z,97539.34
2018-04-29T01:58:27.272Z,97542.28
2018-04-29T02:00:55.542Z,97542.24
2018-04-29T02:03:23.801Z,97549.94
2018-04-29T02:05:52.093Z,97556.06
2018-04-29T02:08:20.458Z,97555.70
2018-04-29T02:10:48.716Z,97552.23
2018-04-29T02:13:17.730Z,97549.17
2018-04-29T02:15:46.002Z,97545.97
2018-04-29T02:18:14.250Z,97544.91
2018-04-29T02:20:42.522Z,97544.13
2018-04-29T02:23:10.783Z,97539.41
2018-04-29T02:25:39.124Z,97530.42
2018-04-29T02:28:07.402Z,97532.04
2018-04-29T02:30:35.670Z,97532.37
2018-04-29T02:33:03.963Z,97523.03
2018-04-29T02:35:32.235Z,97522.24
2018-04-29T02:38:00.506Z,97520.55
2018-04-29T02:40:28.790Z,97518.35
2018-04-29T02:42:57.068Z,97515.78
2018-04-29T02:45:25.430Z,97516.69
2018-04-29T02:47:53.723Z,97511.55
2018-04-29T02:50:21.980Z,97504.34
2018-04-29T02:52:50.271Z,97494.75
2018-04-29T02:55:18.536Z,97480.38
2018-04-29T02:57:46.823Z,97479.94
2018-04-29T03:00:15.185Z,97473.62
2018-04-29T03:02:43.435Z,97473.16
2018-04-29T03:05:12.461Z,97473.84
2018-04-29T03:07:41.095Z,97476.28
2018-04-29T03:10:09.431Z,97477.61
2018-04-29T03:12:37.717Z,97464.36
2018-04-29T03:15:06.083Z,97474.95
2018-04-29T03:17:34.361Z,97472.73
2018-04-29T03:20:02.647Z,97465.91
2018-04-29T03:22:31.017Z,97470.17
2018-04-29T03:24:59.290Z,97470.59
2018-04-29T03:27:27.577Z,97462.05
2018-04-29T03:29:55.943Z,97473.11
2018-04-29T03:32:24.227Z,97469.34
2018-04-29T03:34:52.479Z,97469.36
2018-04-29T03:37:21.512Z,97466.84
2018-04-29T03:39:49.779Z,97466.88
2018-04-29T03:42:18.031Z,97461.84
2018-04-29T03:44:46.307Z,97456.81
2018-04-29T03:47:14.604Z,97454.33
2018-04-29T03:49:42.858Z,97455.55
2018-04-29T03:52:11.129Z,97462.34
2018-04-29T03:54:39.435Z,97462.37
2018-04-29T03:57:25.460Z,97459.92
2018-04-29T04:00:11.515Z,97458.16
2018-04-29T04:02:57.709Z,97456.09
2018-04-29T04:05:25.962Z,97462.06
2018-04-29T04:07:54.987Z,97467.20
2018-04-29T04:10:23.262Z,97462.55
2018-04-29T04:12:51.532Z,97465.98
2018-04-29T04:15:19.779Z,97464.24
2018-04-29T04:17:48.817Z,97456.20
2018-04-29T04:20:17.112Z,97463.38
2018-04-29T04:22:45.456Z,97464.25
2018-04-29T04:25:13.731Z,97462.53
2018-04-29T04:27:42.691Z,97454.47
2018-04-29T04:30:11.719Z,97454.45
2018-04-29T04:32:39.994Z,97460.83
2018-04-29T04:35:08.252Z,97459.14
2018-04-29T04:37:36.544Z,97460.80
2018-04-29T04:40:04.818Z,97455.66
2018-04-29T04:42:33.125Z,97453.91
2018-04-29T04:45:01.474Z,97460.27
2018-04-29T04:47:29.779Z,97462.78
2018-04-29T04:49:58.035Z,97468.75
2018-04-29T04:52:26.287Z,97466.62
2018-04-29T04:54:54.563Z,97479.36
2018-04-29T04:57:23.591Z,97478.48
2018-04-29T04:59:51.959Z,97472.48
2018-04-29T05:02:20.247Z,97470.70
2018-04-29T05:04:48.499Z,97471.09
2018-04-29T05:07:16.779Z,97470.20
2018-04-29T05:09:45.043Z,97464.16
2018-04-29T05:12:13.298Z,97454.30
2018-04-29T05:14:42.319Z,97446.95
2018-04-29T05:17:10.591Z,97439.30
2018-04-29T05:19:38.855Z,97438.42
2018-04-29T05:22:07.925Z,97431.87
2018-04-29T05:24:36.169Z,97432.25
2018-04-29T05:27:04.419Z,97433.83
2018-04-29T05:29:32.670Z,97431.64
2018-04-29T05:32:01.788Z,97427.70
2018-04-29T05:34:30.067Z,97424.06
2018-04-29T05:36:58.323Z,97410.23
2018-04-29T05:39:27.361Z,97404.92
2018-04-29T05:41:55.631Z,97407.70
2018-04-29T05:44:23.998Z,97407.47
2018-04-29T05:46:52.295Z,97405.94
2018-04-29T05:49:20.571Z,97403.75
2018-04-29T05:51:48.832Z,97403.56
2018-04-29T05:54:17.109Z,97409.02
2018-04-29T05:56:45.400Z,97411.92
2018-04-29T05:59:13.656Z,97418.04
2018-04-29T06:01:41.927Z,97406.52
2018-04-29T06:04:10.183Z,97411.50
2018-04-29T06:06:39.347Z,97422.79
2018-04-29T06:09:07.691Z,97422.34
2018-04-29T06:11:35.948Z,97408.32
2018-04-29T06:14:04.263Z,97405.02
2018-04-29T06:16:32.548Z,97400.68
2018-04-29T06:19:00.803Z,97408.05
2018-04-29T06:21:29.916Z,97418.42
2018-04-29T06:23:58.268Z,97422.08
2018-04-29T06:26:26.535Z,97427.09
2018-04-29T06:28:54.805Z,97428.33
2018-04-29T06:31:23.103Z,97427.09
2018-04-29T06:33:51.367Z,97426.93
2018-04-29T06:36:19.652Z,97409.61
2018-04-29T06:38:47.932Z,97406.57
2018-04-29T06:41:16.187Z,97405.92
2018-04-29T06:43:44.468Z,97410.89
2018-04-29T06:46:12.722Z,97393.23
2018-04-29T06:48:41.846Z,97371.99
2018-04-29T06:51:10.194Z,97364.42
2018-04-29T06:53:39.222Z,97347.22
2018-04-29T06:56:07.475Z,97331.02
2018-04-29T06:58:35.750Z,97346.09
2018-04-29T07:01:04.010Z,97356.84
2018-04-29T07:03:33.054Z,97386.66
2018-04-29T07:06:01.318Z,97391.42
2018-04-29T07:08:29.592Z,97402.33
2018-04-29T07:10:57.860Z,97389.41
2018-04-29T07:13:26.118Z,97381.16
2018-04-29T07:15:55.161Z,97377.93
2018-04-29T07:18:23.447Z,97381.03
2018-04-29T07:20:51.710Z,97384.28
2018-04-29T07:23:19.991Z,97385.66
2018-04-29T07:25:48.345Z,97382.53
2018-04-29T07:28:16.602Z,97382.80
2018-04-29T07:30:44.879Z,97379.03
2018-04-29T07:33:13.198Z,97377.93
2018-04-29T07:35:41.550Z,97381.59
2018-04-29T07:38:09.822Z,97381.88
2018-04-29T07:40:38.083Z,97381.09
2018-04-29T07:43:06.366Z,97384.09
2018-04-29T07:45:34.630Z,97392.25
2018-04-29T07:48:03.753Z,97388.97
2018-04-29T07:50:32.132Z,97382.30
2018-04-29T07:53:00.410Z,97383.02
2018-04-29T07:55:28.685Z,97370.33
2018-04-29T07:57:56.998Z,97353.14
2018-04-29T08:00:25.259Z,97342.88
2018-04-29T08:02:53.618Z,97346.95
2018-04-29T08:05:21.882Z,97355.06
2018-04-29T08:07:50.170Z,97358.64
2018-04-29T08:10:18.456Z,97357.02
2018-04-29T08:12:46.718Z,97347.67
2018-04-29T08:15:15.103Z,97344.55
2018-04-29T08:17:45.410Z,97354.57
2018-04-29T08:20:13.696Z,97355.31
2018-04-29T08:22:42.038Z,97351.01
2018-04-29T08:25:10.252Z,97346.49
2018-04-29T08:27:38.527Z,97346.61
2018-04-29T08:30:06.847Z,97351.22
2018-04-29T08:32:35.080Z,97372.28
2018-04-29T08:35:03.359Z,97398.09
2018-04-29T08:37:31.642Z,97405.73
2018-04-29T08:39:59.902Z,97419.06
2018-04-29T08:42:28.292Z,97426.86
2018-04-29T08:44:56.547Z,97425.09
2018-04-29T08:47:24.870Z,97426.80
2018-04-29T08:49:53.155Z,97427.55
2018-04-29T08:52:21.513Z,97427.80
2018-04-29T08:54:49.777Z,97427.17
2018-04-29T08:57:18.157Z,97431.21
2018-04-29T08:59:46.426Z,97439.92
2018-04-29T09:02:14.712Z,97432.54
2018-04-29T09:04:43.001Z,97426.61
2018-04-29T09:07:11.261Z,97433.09
2018-04-29T09:09:39.638Z,97424.23
2018-04-29T09:12:07.937Z,97429.45
2018-04-29T09:14:36.212Z,97425.77
2018-04-29T09:17:04.507Z,97431.73
2018-04-29T09:19:32.883Z,97430.40
2018-04-29T09:22:01.223Z,97418.83
2018-04-29T09:24:29.508Z,97415.34
2018-04-29T09:26:57.776Z,97411.84
2018-04-29T09:29:26.061Z,97403.66
2018-04-29T09:31:54.339Z,97379.02
2018-04-29T09:34:22.607Z,97368.19
2018-04-29T09:36:50.878Z,97370.17
2018-04-29T09:39:19.151Z,97374.55
2018-04-29T09:41:47.411Z,97372.77
2018-04-29T09:44:16.441Z,97370.68
2018-04-29T09:46:44.801Z,97374.17
2018-04-29T09:49:13.087Z,97377.86
2018-04-29T09:51:41.382Z,97373.53
2018-04-29T09:54:09.810Z,97374.73
2018-04-29T09:56:38.000Z,97373.67
2018-04-29T09:59:06.270Z,97373.97
2018-04-29T10:01:35.471Z,97374.14
2018-04-29T10:04:03.763Z,97371.72
2018-04-29T10:06:32.019Z,97377.47
2018-04-29T10:09:00.320Z,97375.44
2018-04-29T10:11:28.592Z,97379.20
2018-04-29T10:13:56.876Z,97380.73
2018-04-29T10:16:25.959Z,97383.16
2018-04-29T10:18:54.291Z,97378.36
2018-04-29T10:21:22.617Z,97365.84
2018-04-29T10:23:50.901Z,97348.84
2018-04-29T10:26:19.149Z,97335.27
2018-04-29T10:28:47.435Z,97314.36
2018-04-29T10:31:15.724Z,97248.55
2018-04-29T10:33:43.987Z,97210.66
2018-04-29T10:36:12.275Z,97230.33
2018-04-29T10:38:40.535Z,97257.81
2018-04-29T10:41:08.825Z,97275.94
2018-04-29T10:43:37.082Z,97279.21
2018-04-29T10:46:06.199Z,97266.27
2018-04-29T10:48:34.580Z,97267.79
2018-04-29T10:51:02.899Z,97262.33
2018-04-29T10:53:31.174Z,97265.16
2018-04-29T10:56:00.223Z,97265.61
2018-04-29T10:58:28.487Z,97262.53
2018-04-29T11:00:56.762Z,97261.09
2018-04-29T11:03:25.058Z,97257.50
2018-04-29T11:05:53.334Z,97263.36
2018-04-29T11:08:21.619Z,97263.27
2018-04-29T11:10:49.988Z,97256.84
2018-04-29T11:13:18.250Z,97257.37
2018-04-29T11:15:46.527Z,97250.80
2018-04-29T11:18:14.791Z,97255.95
2018-04-29T11:20:43.830Z,97246.37
2018-04-29T11:23:12.087Z,97251.73
2018-04-29T11:25:40.349Z,97246.05
2018-04-29T11:28:08.644Z,97237.42
2018-04-29T11:30:37.104Z,97239.77
2018-04-29T11:33:05.367Z,97228.33
2018-04-29T11:35:34.423Z,97219.05
2018-04-29T11:38:02.774Z,97218.16
2018-04-29T11:40:31.139Z,97212.16
2018-04-29T11:42:59.318Z,97211.87
2018-04-29T11:45:27.602Z,97199.62
2018-04-29T11:47:55.858Z,97201.75
2018-04-29T11:50:24.150Z,97192.20
2018-04-29T11:52:52.402Z,97189.77
2018-04-29T11:55:20.662Z,97188.94
2018-04-29T11:57:49.699Z,97186.85
2018-04-29T12:00:17.958Z,97188.84
2018-04-29T12:02:46.218Z,97189.36
2018-04-29T12:05:15.278Z,97178.12
2018-04-29T12:07:43.531Z,97180.08
2018-04-29T12:10:11.793Z,97176.08
2018-04-29T12:12:40.067Z,97173.71
2018-04-29T12:15:08.343Z,97171.73
2018-04-29T12:17:36.611Z,97161.77
2018-04-29T12:20:04.900Z,97159.70
2018-04-29T12:22:33.155Z,97151.81
2018-04-29T12:25:01.419Z,97145.89
2018-04-29T12:27:30.499Z,97147.98
2018-04-29T12:29:58.768Z,97146.78
2018-04-29T12:32:27.044Z,97143.80
2018-04-29T12:34:55.319Z,97136.59
2018-04-29T12:37:23.597Z,97143.11
2018-04-29T12:39:51.986Z,97141.19
2018-04-29T12:42:20.138Z,97134.48
2018-04-29T12:44:48.406Z,97128.88
2018-04-29T12:47:16.682Z,97119.70
2018-04-29T12:49:44.947Z,97115.20
2018-04-29T12:52:13.251Z,97113.83
2018-04-29T12:54:41.486Z,97104.92
2018-04-29T12:57:09.741Z,97105.51
2018-04-29T12:59:38.000Z,97100.83
2018-04-29T13:02:07.043Z,97102.77
2018-04-29T13:04:35.302Z,97098.61
2018-04-29T13:07:03.600Z,97095.20
2018-04-29T13:09:31.870Z,97092.53
2018-04-29T13:12:00.131Z,97092.75
2018-04-29T13:14:28.407Z,97090.55
2018-04-29T13:16:56.665Z,97075.28
2018-04-29T13:19:24.938Z,97072.36
2018-04-29T13:21:54.003Z,97071.66
2018-04-29T13:24:22.255Z,97074.11
2018-04-29T13:26:50.521Z,97074.25
2018-04-29T13:29:18.809Z,97068.23
2018-04-29T13:31:47.075Z,97060.78
2018-04-29T13:34:15.340Z,97056.63
2018-04-29T13:36:43.616Z,97057.66
2018-04-29T13:39:11.898Z,97051.52
2018-04-29T13:41:40.166Z,97053.52
2018-04-29T13:44:08.483Z,97042.47
2018-04-29T13:46:36.743Z,97040.84
2018-04-29T13:49:05.027Z,97031.59
2018-04-29T13:51:33.334Z,97033.30
2018-04-29T13:54:02.366Z,97035.52
2018-04-29T13:56:30.649Z,97029.80
2018-04-29T13:58:58.919Z,97026.62
2018-04-29T14:01:27.292Z,97027.92
2018-04-29T14:03:55.548Z,97020.98
2018-04-29T14:06:23.832Z,97015.80
2018-04-29T14:08:52.103Z,97016.08
2018-04-29T14:11:20.364Z,97007.13
2018-04-29T14:13:50.146Z,97000.16
2018-04-29T14:16:18.408Z,96995.91
2018-04-29T14:18:46.678Z,96994.52
2018-04-29T14:21:14.947Z,96988.34
2018-04-29T14:23:43.211Z,96988.28
2018-04-29T14:26:11.468Z,96987.83
2018-04-29T14:28:39.750Z,96986.20
2018-04-29T14:31:08.029Z,96973.92
2018-04-29T14:33:36.322Z,96969.87
2018-04-29T14:36:04.577Z,96973.70
2018-04-29T14:38:32.841Z,96955.28
2018-04-29T14:41:01.884Z,96955.14
2018-04-29T14:43:30.241Z,96957.12
2018-04-29T14:45:58.518Z,96958.33
2018-04-29T14:48:27.102Z,96948.20
2018-04-29T14:50:55.359Z,96956.33
2018-04-29T14:53:23.647Z,96952.23
2018-04-29T14:55:51.908Z,96944.98
2018-04-29T14:58:20.944Z,96940.02
2018-04-29T15:00:49.215Z,96929.37
2018-04-29T15:03:17.479Z,96934.19
2018-04-29T15:05:45.738Z,96929.97
2018-04-29T15:08:14.015Z,96930.89
2018-04-29T15:10:42.278Z,96924.57
2018-04-29T15:13:11.307Z,96922.25
2018-04-29T15:15:39.586Z,96924.59
2018-04-29T15:18:07.855Z,96918.75
2018-04-29T15:20:36.139Z,96910.61
2018-04-29T15:23:04.410Z,96908.14
2018-04-29T15:25:32.665Z,96898.78
2018-04-29T15:28:00.942Z,96893.70
2018-04-29T15:30:29.195Z,96899.28
2018-04-29T15:32:58.219Z,96890.69
2018-04-29T15:35:26.499Z,96884.66
2018-04-29T15:37:55.993Z,96883.70
2018-04-29T15:40:25.019Z,96894.48
2018-04-29T15:42:53.377Z,96889.91
2018-04-29T15:45:21.636Z,96884.37
2018-04-29T15:47:49.890Z,96873.81
2018-04-29T15:50:18.943Z,96871.41
2018-04-29T15:52:47.195Z,96872.25
2018-04-29T15:55:15.462Z,96858.98
2018-04-29T15:57:43.754Z,96857.92
2018-04-29T16:00:12.011Z,96845.37
2018-04-29T16:02:40.294Z,96842.88
2018-04-29T16:05:08.558Z,96839.23
2018-04-29T16:07:37.578Z,96831.42
2018-04-29T16:10:05.867Z,96827.25
2018-04-29T16:12:34.135Z,96820.50
2018-04-29T16:15:02.400Z,96816.59
2018-04-29T16:17:30.670Z,96813.27
2018-04-29T16:19:58.938Z,96805.90
2018-04-29T16:22:27.196Z,96805.69
2018-04-29T16:24:56.230Z,96797.39
2018-04-29T16:27:24.498Z,96792.25
2018-04-29T16:29:52.754Z,96788.95
2018-04-29T16:32:21.039Z,96788.80
2018-04-29T16:34:49.302Z,96780.62
2018-04-29T16:37:18.327Z,96784.83
2018-04-29T16:39:46.608Z,96782.92
2018-04-29T16:42:14.872Z,96779.94
2018-04-29T16:44:43.199Z,96778.91
2018-04-29T16:47:11.443Z,96780.00
2018-04-29T16:49:39.706Z,96775.81
2018-04-29T16:52:07.968Z,96780.73
2018-04-29T16:54:36.242Z,96774.05
2018-04-29T16:57:04.512Z,96774.05
2018-04-29T16:59:32.790Z,96770.60
2018-04-29T17:02:01.100Z,96761.50
2018-04-29T17:04:29.374Z,96763.40
2018-04-29T17:06:57.652Z,96754.33
2018-04-29T17:09:25.981Z,96762.12
2018-04-29T17:11:54.196Z,96755.59
2018-04-29T17:14:22.534Z,96755.38
2018-04-29T17:16:50.749Z,96749.64
2018-04-29T17:19:19.021Z,96750.90
2018-04-29T17:21:47.286Z,96755.69
2018-04-29T17:24:15.567Z,96754.50
2018-04-29T17:26:43.830Z,96747.81
2018-04-29T17:29:12.202Z,96750.06
2018-04-29T17:31:40.395Z,96745.48
2018-04-29T17:34:08.680Z,96746.59
2018-04-29T17:36:36.938Z,96745.66
2018-04-29T17:39:05.254Z,96749.38
2018-04-29T17:41:34.251Z,96749.90
2018-04-29T17:44:02.512Z,96746.45
2018-04-29T17:46:30.790Z,96746.89
2018-04-29T17:48:59.056Z,96742.02
2018-04-29T17:51:28.146Z,96737.74
2018-04-29T17:53:56.450Z,96733.81
2018-04-29T17:56:24.710Z,96730.92
2018-04-29T17:58:52.987Z,96733.23
2018-04-29T18:01:21.368Z,96729.31
2018-04-29T18:03:49.579Z,96726.30
2018-04-29T18:06:17.836Z,96724.45
2018-04-29T18:08:46.120Z,96728.50
2018-04-29T18:11:14.470Z,96724.84
2018-04-29T18:13:42.765Z,96726.72
2018-04-29T18:16:11.147Z,96728.52
2018-04-29T18:18:39.473Z,96724.41
2018-04-29T18:21:07.800Z,96718.61
2018-04-29T18:23:36.922Z,96713.53
2018-04-29T18:26:05.985Z,96707.66
2018-04-29T18:28:34.653Z,96707.89
2018-04-29T18:31:04.154Z,96711.00
2018-04-29T18:33:34.801Z,96703.88
2018-04-29T18:36:04.773Z,96704.86
2018-04-29T18:38:34.588Z,96704.11
2018-04-29T18:41:06.041Z,96698.31
2018-04-29T18:43:35.817Z,96698.41
2018-04-29T18:46:06.394Z,96697.09
2018-04-29T18:48:36.986Z,96693.31
2018-04-29T18:51:07.084Z,96690.64
2018-04-29T18:53:36.802Z,96685.50
2018-04-29T18:56:07.029Z,96685.29
2018-04-29T18:58:36.895Z,96676.48
2018-04-29T19:01:07.635Z,96666.73
2018-04-29T19:03:37.752Z,96659.55
2018-04-29T19:06:08.725Z,96664.30
2018-04-29T19:08:38.637Z,96657.20
2018-04-29T19:11:08.917Z,96662.89
2018-04-29T19:13:38.934Z,96654.39
2018-04-29T19:16:09.794Z,96665.08
2018-04-29T19:18:39.970Z,96664.70
2018-04-29T19:21:10.071Z,96668.61
2018-04-29T19:23:39.848Z,96666.73
2018-04-29T19:26:13.783Z,96675.42
2018-04-29T19:28:43.609Z,96666.97
2018-04-29T19:31:13.604Z,96660.94
2018-04-29T19:33:43.522Z,96659.73
2018-04-29T19:36:13.512Z,96655.64
2018-04-29T19:38:43.462Z,96654.67
2018-04-29T19:41:13.041Z,96647.34
2018-04-29T19:43:42.319Z,96639.82
2018-04-29T19:46:12.548Z,96624.83
2018-04-29T19:48:41.981Z,96628.19
2018-04-29T19:51:11.425Z,96625.31
2018-04-29T19:53:41.410Z,96619.59
2018-04-29T19:56:10.822Z,96613.25
2018-04-29T19:58:40.937Z,96612.86
2018-04-29T20:01:10.317Z,96615.66
2018-04-29T20:03:39.763Z,96603.73
2018-04-29T20:06:09.317Z,96597.72
2018-04-29T20:08:38.737Z,96595.92
2018-04-29T20:11:08.156Z,96587.34
2018-04-29T20:13:37.693Z,96570.63
2018-04-29T20:16:07.073Z,96565.84
2018-04-29T20:18:36.469Z,96568.52
2018-04-29T20:21:05.791Z,96555.17
2018-04-29T20:23:35.305Z,96556.47
2018-04-29T20:26:04.653Z,96559.63
2018-04-29T20:28:34.040Z,96553.84
2018-04-29T20:31:04.087Z,96540.02
2018-04-29T20:33:33.413Z,96534.44
2018-04-29T20:36:02.697Z,96523.34
2018-04-29T20:38:31.984Z,96521.53
2018-04-29T20:41:01.518Z,96510.81
2018-04-29T20:43:30.789Z,96509.53
2018-04-29T20:46:00.328Z,96497.14
2018-04-29T20:48:31.240Z,96487.67
2018-04-29T20:51:01.208Z,96489.22
2018-04-29T20:53:32.079Z,96489.77
2018-04-29T20:56:01.906Z,96484.33
2018-04-29T20:58:30.913Z,96479.27
2018-04-29T21:01:00.703Z,96480.13
2018-04-29T21:03:29.457Z,96472.16
2018-04-29T21:05:58.389Z,96461.46
2018-04-29T21:08:27.136Z,96447.50
2018-04-29T21:10:55.481Z,96444.37
2018-04-29T21:13:24.659Z,96440.12
2018-04-29T21:15:53.738Z,96435.30
2018-04-29T21:18:22.003Z,96428.20
2018-04-29T21:20:50.278Z,96433.41
2018-04-29T21:23:18.579Z,96428.47
2018-04-29T21:25:46.839Z,96420.76
2018-04-29T21:28:15.131Z,96420.59
2018-04-29T21:30:43.392Z,96418.91
2018-04-29T21:33:11.747Z,96409.59
2018-04-29T21:35:40.034Z,96400.47
2018-04-29T21:38:08.422Z,96403.86
2018-04-29T21:40:36.576Z,96399.67
2018-04-29T21:43:04.847Z,96392.82
2018-04-29T21:45:33.155Z,96387.63
2018-04-29T21:48:01.422Z,96383.98
2018-04-29T21:50:29.687Z,96379.29
2018-04-29T21:52:57.953Z,96376.67
2018-04-29T21:55:26.236Z,96377.19
2018-04-29T21:57:54.504Z,96371.42
2018-04-29T22:00:22.763Z,96364.16
2018-04-29T22:02:51.803Z,96362.45
2018-04-29T22:05:20.075Z,96354.03
2018-04-29T22:07:48.365Z,96357.90
2018-04-29T22:10:16.626Z,96355.60
2018-04-29T22:12:44.884Z,96351.02
2018-04-29T22:15:13.167Z,96336.86
2018-04-29T22:17:41.428Z,96325.59
2018-04-29T22:20:09.721Z,96324.72
2018-04-29T22:22:38.926Z,96314.06
2018-04-29T22:25:07.218Z,96308.16
2018-04-29T22:27:35.471Z,96297.61
2018-04-29T22:30:03.741Z,96294.52
2018-04-29T22:32:32.019Z,96293.99
2018-04-29T22:35:00.302Z,96287.95
2018-04-29T22:37:28.555Z,96281.69
2018-04-29T22:39:56.831Z,96280.19
2018-04-29T22:42:25.127Z,96267.12
2018-04-29T22:44:53.391Z,96258.91
2018-04-29T22:47:21.658Z,96260.45
2018-04-29T22:49:49.930Z,96252.67
2018-04-29T22:52:18.197Z,96253.61
2018-04-29T22:54:47.240Z,96238.45
2018-04-29T22:57:15.496Z,96239.09
2018-04-29T22:59:43.790Z,96239.18
2018-04-29T23:02:12.111Z,96236.47
2018-04-29T23:04:41.167Z,96228.54
2018-04-29T23:07:09.433Z,96216.20
2018-04-29T23:09:37.742Z,96215.89
2018-04-29T23:12:06.105Z,96213.02
2018-04-29T23:14:34.374Z,96208.54
2018-04-29T23:17:02.656Z,96199.28
2018-04-29T23:19:30.919Z,96194.45
2018-04-29T23:21:59.194Z,96190.27
2018-04-29T23:24:27.483Z,96191.63
2018-04-29T23:26:55.742Z,96182.91
2018-04-29T23:29:24.023Z,96173.53
2018-04-29T23:31:52.288Z,96165.80
2018-04-29T23:34:20.566Z,96159.11
2018-04-29T23:36:49.062Z,96164.43
2018-04-29T23:39:18.094Z,96159.70
2018-04-29T23:41:47.140Z,96158.50
2018-04-29T23:44:15.419Z,96157.86
2018-04-29T23:46:43.686Z,96159.85
2018-04-29T23:49:11.946Z,96158.36
2018-04-29T23:51:40.259Z,96155.08
2018-04-29T23:54:08.528Z,96154.23
2018-04-29T23:56:36.791Z,96144.91
2018-04-29T23:59:05.078Z,96140.32
